sensor_id;sensor_type;location;lat;lon;timestamp;P1;durP1;ratioP1;P2;durP2;ratioP2
33644;SDS011;19986;48.190;16.366;2023-06-14T00:00:21;38.72;;;36.55;;
33644;SDS011;19986;48.190;16.366;2023-06-14T00:02:47;37.78;;;35.70;;
33644;SDS011;19986;48.190;16.366;2023-06-14T00:05:13;39.90;;;37.65;;
33644;SDS011;19986;48.190;16.366;2023-06-14T00:07:40;39.03;;;37.03;;
33644;SDS011;19986;48.190;16.366;2023-06-14T00:10:10;40.15;;;37.92;;
33644;SDS011;19986;48.190;16.366;2023-06-14T00:12:37;39.67;;;37.28;;
33644;SDS011;19986;48.190;16.366;2023-06-14T00:15:04;38.30;;;36.22;;
33644;SDS011;19986;48.190;16.366;2023-06-14T00:17:31;39.67;;;37.60;;
33644;SDS011;19986;48.190;16.366;2023-06-14T00:19:59;40.00;;;37.90;;
33644;SDS011;19986;48.190;16.366;2023-06-14T00:22:25;39.40;;;37.15;;
33644;SDS011;19986;48.190;16.366;2023-06-14T00:24:53;38.47;;;36.25;;
33644;SDS011;19986;48.190;16.366;2023-06-14T00:27:19;38.63;;;36.70;;
33644;SDS011;19986;48.190;16.366;2023-06-14T00:29:47;38.58;;;36.53;;
33644;SDS011;19986;48.190;16.366;2023-06-14T00:32:12;38.58;;;36.63;;
33644;SDS011;19986;48.190;16.366;2023-06-14T00:34:39;37.55;;;35.38;;
33644;SDS011;19986;48.190;16.366;2023-06-14T00:37:07;38.83;;;36.50;;
33644;SDS011;19986;48.190;16.366;2023-06-14T00:39:32;39.88;;;37.80;;
33644;SDS011;19986;48.190;16.366;2023-06-14T00:42:00;39.75;;;37.75;;
33644;SDS011;19986;48.190;16.366;2023-06-14T00:44:26;37.97;;;35.88;;
33644;SDS011;19986;48.190;16.366;2023-06-14T00:46:51;41.60;;;39.28;;
33644;SDS011;19986;48.190;16.366;2023-06-14T00:49:18;39.60;;;37.35;;
33644;SDS011;19986;48.190;16.366;2023-06-14T00:51:45;39.85;;;37.47;;
33644;SDS011;19986;48.190;16.366;2023-06-14T00:54:11;39.10;;;36.90;;
33644;SDS011;19986;48.190;16.366;2023-06-14T00:56:37;39.42;;;37.20;;
33644;SDS011;19986;48.190;16.366;2023-06-14T00:59:03;38.60;;;36.60;;
33644;SDS011;19986;48.190;16.366;2023-06-14T01:01:32;38.13;;;35.83;;
33644;SDS011;19986;48.190;16.366;2023-06-14T01:03:59;39.53;;;37.33;;
33644;SDS011;19986;48.190;16.366;2023-06-14T01:09:15;39.80;;;37.58;;
33644;SDS011;19986;48.190;16.366;2023-06-14T01:12:04;40.30;;;37.72;;
33644;SDS011;19986;48.190;16.366;2023-06-14T01:14:37;40.70;;;38.47;;
33644;SDS011;19986;48.190;16.366;2023-06-14T01:17:04;39.75;;;37.58;;
33644;SDS011;19986;48.190;16.366;2023-06-14T01:19:30;39.42;;;37.10;;
33644;SDS011;19986;48.190;16.366;2023-06-14T01:22:00;41.30;;;39.20;;
33644;SDS011;19986;48.190;16.366;2023-06-14T01:24:27;40.78;;;38.65;;
33644;SDS011;19986;48.190;16.366;2023-06-14T01:26:57;40.67;;;38.53;;
33644;SDS011;19986;48.190;16.366;2023-06-14T01:29:25;39.70;;;37.58;;
33644;SDS011;19986;48.190;16.366;2023-06-14T01:31:56;39.42;;;37.33;;
33644;SDS011;19986;48.190;16.366;2023-06-14T01:34:22;38.92;;;36.63;;
33644;SDS011;19986;48.190;16.366;2023-06-14T01:36:49;39.33;;;37.13;;
33644;SDS011;19986;48.190;16.366;2023-06-14T01:39:15;40.72;;;38.53;;
33644;SDS011;19986;48.190;16.366;2023-06-14T01:41:42;39.38;;;37.25;;
33644;SDS011;19986;48.190;16.366;2023-06-14T01:44:11;39.58;;;37.47;;
33644;SDS011;19986;48.190;16.366;2023-06-14T01:46:41;40.72;;;38.40;;
33644;SDS011;19986;48.190;16.366;2023-06-14T01:49:10;38.45;;;36.47;;
33644;SDS011;19986;48.190;16.366;2023-06-14T01:51:37;39.78;;;37.60;;
33644;SDS011;19986;48.190;16.366;2023-06-14T01:54:03;39.15;;;36.88;;
33644;SDS011;19986;48.190;16.366;2023-06-14T01:56:30;39.97;;;37.83;;
33644;SDS011;19986;48.190;16.366;2023-06-14T01:58:58;38.80;;;36.60;;
33644;SDS011;19986;48.190;16.366;2023-06-14T02:01:24;40.30;;;37.97;;
33644;SDS011;19986;48.190;16.366;2023-06-14T02:03:52;39.08;;;37.03;;
33644;SDS011;19986;48.190;16.366;2023-06-14T02:06:19;40.22;;;38.08;;
33644;SDS011;19986;48.190;16.366;2023-06-14T02:08:45;37.80;;;35.78;;
33644;SDS011;19986;48.190;16.366;2023-06-14T02:11:11;38.83;;;36.47;;
33644;SDS011;19986;48.190;16.366;2023-06-14T02:13:37;38.53;;;36.42;;
33644;SDS011;19986;48.190;16.366;2023-06-14T02:16:18;40.25;;;38.00;;
33644;SDS011;19986;48.190;16.366;2023-06-14T02:18:44;39.45;;;37.40;;
33644;SDS011;19986;48.190;16.366;2023-06-14T02:21:09;40.15;;;37.85;;
33644;SDS011;19986;48.190;16.366;2023-06-14T02:23:38;40.30;;;38.13;;
33644;SDS011;19986;48.190;16.366;2023-06-14T02:26:04;40.40;;;38.30;;
33644;SDS011;19986;48.190;16.366;2023-06-14T02:28:32;41.55;;;39.30;;
33644;SDS011;19986;48.190;16.366;2023-06-14T02:30:58;40.63;;;38.38;;
33644;SDS011;19986;48.190;16.366;2023-06-14T02:33:26;39.63;;;37.47;;
33644;SDS011;19986;48.190;16.366;2023-06-14T02:35:52;41.35;;;39.13;;
33644;SDS011;19986;48.190;16.366;2023-06-14T02:38:19;39.35;;;37.40;;
33644;SDS011;19986;48.190;16.366;2023-06-14T02:40:45;39.55;;;37.47;;
33644;SDS011;19986;48.190;16.366;2023-06-14T02:43:10;40.33;;;38.22;;
33644;SDS011;19986;48.190;16.366;2023-06-14T02:45:38;39.75;;;37.42;;
33644;SDS011;19986;48.190;16.366;2023-06-14T02:48:04;38.25;;;36.17;;
33644;SDS011;19986;48.190;16.366;2023-06-14T02:50:30;41.28;;;39.08;;
33644;SDS011;19986;48.190;16.366;2023-06-14T02:52:56;39.90;;;37.80;;
33644;SDS011;19986;48.190;16.366;2023-06-14T02:55:23;40.70;;;38.50;;
33644;SDS011;19986;48.190;16.366;2023-06-14T02:57:49;39.53;;;37.33;;
33644;SDS011;19986;48.190;16.366;2023-06-14T03:00:17;39.85;;;37.75;;
33644;SDS011;19986;48.190;16.366;2023-06-14T03:02:43;39.25;;;36.75;;
33644;SDS011;19986;48.190;16.366;2023-06-14T03:05:10;38.88;;;36.88;;
33644;SDS011;19986;48.190;16.366;2023-06-14T03:07:37;39.95;;;37.85;;
33644;SDS011;19986;48.190;16.366;2023-06-14T03:10:08;39.97;;;37.67;;
33644;SDS011;19986;48.190;16.366;2023-06-14T03:12:39;41.75;;;39.47;;
33644;SDS011;19986;48.190;16.366;2023-06-14T03:15:05;39.42;;;37.42;;
33644;SDS011;19986;48.190;16.366;2023-06-14T03:17:34;41.15;;;38.78;;
33644;SDS011;19986;48.190;16.366;2023-06-14T03:20:04;38.85;;;36.85;;
33644;SDS011;19986;48.190;16.366;2023-06-14T03:22:31;40.65;;;38.60;;
33644;SDS011;19986;48.190;16.366;2023-06-14T03:25:06;39.97;;;37.92;;
33644;SDS011;19986;48.190;16.366;2023-06-14T03:27:35;38.50;;;36.40;;
33644;SDS011;19986;48.190;16.366;2023-06-14T03:30:02;41.35;;;39.00;;
33644;SDS011;19986;48.190;16.366;2023-06-14T03:32:28;40.13;;;37.88;;
33644;SDS011;19986;48.190;16.366;2023-06-14T03:34:58;39.28;;;37.28;;
33644;SDS011;19986;48.190;16.366;2023-06-14T03:37:24;40.90;;;38.50;;
33644;SDS011;19986;48.190;16.366;2023-06-14T03:39:52;41.42;;;38.90;;
33644;SDS011;19986;48.190;16.366;2023-06-14T03:42:18;40.25;;;38.03;;
33644;SDS011;19986;48.190;16.366;2023-06-14T03:44:44;40.50;;;38.08;;
33644;SDS011;19986;48.190;16.366;2023-06-14T03:47:10;41.67;;;39.20;;
33644;SDS011;19986;48.190;16.366;2023-06-14T03:49:37;41.60;;;38.90;;
33644;SDS011;19986;48.190;16.366;2023-06-14T03:52:03;40.78;;;38.63;;
33644;SDS011;19986;48.190;16.366;2023-06-14T03:54:30;42.22;;;39.50;;
33644;SDS011;19986;48.190;16.366;2023-06-14T03:56:58;40.00;;;37.92;;
33644;SDS011;19986;48.190;16.366;2023-06-14T03:59:25;40.28;;;37.72;;
33644;SDS011;19986;48.190;16.366;2023-06-14T04:01:53;40.13;;;37.85;;
33644;SDS011;19986;48.190;16.366;2023-06-14T04:04:20;41.97;;;39.30;;
33644;SDS011;19986;48.190;16.366;2023-06-14T04:06:46;40.35;;;38.03;;
33644;SDS011;19986;48.190;16.366;2023-06-14T04:09:13;41.78;;;39.47;;
33644;SDS011;19986;48.190;16.366;2023-06-14T04:11:39;40.95;;;38.85;;
33644;SDS011;19986;48.190;16.366;2023-06-14T04:14:06;41.05;;;38.85;;
33644;SDS011;19986;48.190;16.366;2023-06-14T04:16:32;39.28;;;37.08;;
33644;SDS011;19986;48.190;16.366;2023-06-14T04:18:58;40.50;;;38.30;;
33644;SDS011;19986;48.190;16.366;2023-06-14T04:21:24;40.25;;;37.95;;
33644;SDS011;19986;48.190;16.366;2023-06-14T04:23:52;38.90;;;36.78;;
33644;SDS011;19986;48.190;16.366;2023-06-14T04:26:20;39.35;;;37.35;;
33644;SDS011;19986;48.190;16.366;2023-06-14T04:28:49;37.65;;;35.45;;
33644;SDS011;19986;48.190;16.366;2023-06-14T04:31:15;39.83;;;37.58;;
33644;SDS011;19986;48.190;16.366;2023-06-14T04:33:42;38.78;;;36.88;;
33644;SDS011;19986;48.190;16.366;2023-06-14T04:36:09;40.17;;;37.90;;
33644;SDS011;19986;48.190;16.366;2023-06-14T04:38:37;38.15;;;36.05;;
33644;SDS011;19986;48.190;16.366;2023-06-14T04:41:04;39.65;;;37.55;;
33644;SDS011;19986;48.190;16.366;2023-06-14T04:43:37;38.88;;;36.47;;
33644;SDS011;19986;48.190;16.366;2023-06-14T04:46:04;39.58;;;37.38;;
33644;SDS011;19986;48.190;16.366;2023-06-14T04:48:32;38.58;;;36.53;;
33644;SDS011;19986;48.190;16.366;2023-06-14T04:50:58;39.17;;;36.78;;
33644;SDS011;19986;48.190;16.366;2023-06-14T04:53:24;40.63;;;37.95;;
33644;SDS011;19986;48.190;16.366;2023-06-14T04:55:50;37.67;;;35.58;;
33644;SDS011;19986;48.190;16.366;2023-06-14T04:58:16;36.88;;;34.97;;
33644;SDS011;19986;48.190;16.366;2023-06-14T05:00:42;40.60;;;37.90;;
33644;SDS011;19986;48.190;16.366;2023-06-14T05:03:09;39.40;;;37.30;;
33644;SDS011;19986;48.190;16.366;2023-06-14T05:05:39;39.78;;;37.58;;
33644;SDS011;19986;48.190;16.366;2023-06-14T05:08:06;39.17;;;36.58;;
33644;SDS011;19986;48.190;16.366;2023-06-14T05:10:33;38.80;;;36.72;;
33644;SDS011;19986;48.190;16.366;2023-06-14T05:13:01;36.78;;;34.72;;
33644;SDS011;19986;48.190;16.366;2023-06-14T05:15:29;35.42;;;33.42;;
33644;SDS011;19986;48.190;16.366;2023-06-14T05:17:56;35.85;;;32.97;;
33644;SDS011;19986;48.190;16.366;2023-06-14T05:20:23;35.58;;;33.60;;
33644;SDS011;19986;48.190;16.366;2023-06-14T05:22:59;34.60;;;32.63;;
33644;SDS011;19986;48.190;16.366;2023-06-14T05:25:25;35.20;;;32.88;;
33644;SDS011;19986;48.190;16.366;2023-06-14T05:27:51;34.80;;;32.50;;
33644;SDS011;19986;48.190;16.366;2023-06-14T05:30:17;35.42;;;33.33;;
33644;SDS011;19986;48.190;16.366;2023-06-14T05:32:43;35.40;;;33.30;;
33644;SDS011;19986;48.190;16.366;2023-06-14T05:35:10;34.33;;;31.92;;
33644;SDS011;19986;48.190;16.366;2023-06-14T05:37:37;33.47;;;31.58;;
33644;SDS011;19986;48.190;16.366;2023-06-14T05:40:03;34.47;;;32.58;;
33644;SDS011;19986;48.190;16.366;2023-06-14T05:42:31;37.03;;;35.03;;
33644;SDS011;19986;48.190;16.366;2023-06-14T05:44:59;38.50;;;36.28;;
33644;SDS011;19986;48.190;16.366;2023-06-14T05:47:25;36.35;;;34.35;;
33644;SDS011;19986;48.190;16.366;2023-06-14T05:49:53;36.50;;;34.60;;
33644;SDS011;19986;48.190;16.366;2023-06-14T05:52:20;38.30;;;36.30;;
33644;SDS011;19986;48.190;16.366;2023-06-14T05:54:46;38.80;;;36.58;;
33644;SDS011;19986;48.190;16.366;2023-06-14T05:57:12;35.80;;;33.38;;
33644;SDS011;19986;48.190;16.366;2023-06-14T05:59:38;37.85;;;35.65;;
33644;SDS011;19986;48.190;16.366;2023-06-14T06:02:04;37.83;;;35.75;;
33644;SDS011;19986;48.190;16.366;2023-06-14T06:04:31;38.22;;;35.95;;
33644;SDS011;19986;48.190;16.366;2023-06-14T06:06:57;39.38;;;36.50;;
33644;SDS011;19986;48.190;16.366;2023-06-14T06:09:23;35.67;;;33.47;;
33644;SDS011;19986;48.190;16.366;2023-06-14T06:11:48;38.85;;;36.38;;
33644;SDS011;19986;48.190;16.366;2023-06-14T06:14:15;39.22;;;37.08;;
33644;SDS011;19986;48.190;16.366;2023-06-14T06:16:41;38.80;;;36.70;;
33644;SDS011;19986;48.190;16.366;2023-06-14T06:19:07;37.13;;;34.92;;
33644;SDS011;19986;48.190;16.366;2023-06-14T06:21:32;37.65;;;35.33;;
33644;SDS011;19986;48.190;16.366;2023-06-14T06:23:59;38.75;;;36.42;;
33644;SDS011;19986;48.190;16.366;2023-06-14T06:26:28;37.85;;;35.55;;
33644;SDS011;19986;48.190;16.366;2023-06-14T06:28:56;38.72;;;36.53;;
33644;SDS011;19986;48.190;16.366;2023-06-14T06:31:22;38.72;;;36.20;;
33644;SDS011;19986;48.190;16.366;2023-06-14T06:33:49;36.88;;;34.88;;
33644;SDS011;19986;48.190;16.366;2023-06-14T06:36:15;37.85;;;35.65;;
33644;SDS011;19986;48.190;16.366;2023-06-14T06:38:41;37.63;;;35.67;;
33644;SDS011;19986;48.190;16.366;2023-06-14T06:41:08;36.13;;;34.15;;
33644;SDS011;19986;48.190;16.366;2023-06-14T06:43:39;39.47;;;37.13;;
33644;SDS011;19986;48.190;16.366;2023-06-14T06:46:05;37.70;;;35.40;;
33644;SDS011;19986;48.190;16.366;2023-06-14T06:48:30;38.50;;;36.28;;
33644;SDS011;19986;48.190;16.366;2023-06-14T06:50:57;36.78;;;34.85;;
33644;SDS011;19986;48.190;16.366;2023-06-14T06:53:23;38.85;;;36.30;;
33644;SDS011;19986;48.190;16.366;2023-06-14T06:55:48;36.67;;;34.42;;
33644;SDS011;19986;48.190;16.366;2023-06-14T06:58:14;36.67;;;34.45;;
33644;SDS011;19986;48.190;16.366;2023-06-14T07:00:40;37.20;;;35.03;;
33644;SDS011;19986;48.190;16.366;2023-06-14T07:03:06;39.67;;;37.53;;
33644;SDS011;19986;48.190;16.366;2023-06-14T07:05:33;39.20;;;36.50;;
33644;SDS011;19986;48.190;16.366;2023-06-14T07:08:00;37.30;;;35.30;;
33644;SDS011;19986;48.190;16.366;2023-06-14T07:10:26;38.50;;;36.15;;
33644;SDS011;19986;48.190;16.366;2023-06-14T07:12:52;38.80;;;36.70;;
33644;SDS011;19986;48.190;16.366;2023-06-14T07:15:18;38.78;;;36.20;;
33644;SDS011;19986;48.190;16.366;2023-06-14T07:17:44;37.63;;;34.63;;
33644;SDS011;19986;48.190;16.366;2023-06-14T07:20:10;34.92;;;32.83;;
33644;SDS011;19986;48.190;16.366;2023-06-14T07:22:39;38.45;;;36.10;;
33644;SDS011;19986;48.190;16.366;2023-06-14T07:25:08;38.20;;;35.50;;
33644;SDS011;19986;48.190;16.366;2023-06-14T07:27:37;36.92;;;35.03;;
33644;SDS011;19986;48.190;16.366;2023-06-14T07:30:04;37.03;;;34.95;;
33644;SDS011;19986;48.190;16.366;2023-06-14T07:32:31;40.22;;;37.38;;
33644;SDS011;19986;48.190;16.366;2023-06-14T07:34:57;35.72;;;33.72;;
33644;SDS011;19986;48.190;16.366;2023-06-14T07:37:24;37.17;;;34.97;;
33644;SDS011;19986;48.190;16.366;2023-06-14T07:39:50;37.47;;;35.53;;
33644;SDS011;19986;48.190;16.366;2023-06-14T07:42:16;36.83;;;34.33;;
33644;SDS011;19986;48.190;16.366;2023-06-14T07:44:42;38.65;;;36.42;;
33644;SDS011;19986;48.190;16.366;2023-06-14T07:47:08;35.95;;;33.92;;
33644;SDS011;19986;48.190;16.366;2023-06-14T07:49:33;35.33;;;33.33;;
33644;SDS011;19986;48.190;16.366;2023-06-14T07:52:00;36.25;;;34.30;;
33644;SDS011;19986;48.190;16.366;2023-06-14T07:54:26;37.50;;;35.28;;
33644;SDS011;19986;48.190;16.366;2023-06-14T07:56:52;36.17;;;33.97;;
33644;SDS011;19986;48.190;16.366;2023-06-14T07:59:19;35.88;;;33.88;;
33644;SDS011;19986;48.190;16.366;2023-06-14T08:01:45;36.55;;;34.35;;
33644;SDS011;19986;48.190;16.366;2023-06-14T08:04:13;35.97;;;34.03;;
33644;SDS011;19986;48.190;16.366;2023-06-14T08:06:40;36.70;;;34.70;;
33644;SDS011;19986;48.190;16.366;2023-06-14T08:09:11;34.47;;;32.58;;
33644;SDS011;19986;48.190;16.366;2023-06-14T08:11:38;36.10;;;33.55;;
33644;SDS011;19986;48.190;16.366;2023-06-14T08:14:04;36.03;;;34.00;;
33644;SDS011;19986;48.190;16.366;2023-06-14T08:16:30;35.42;;;33.63;;
33644;SDS011;19986;48.190;16.366;2023-06-14T08:18:56;37.80;;;35.72;;
33644;SDS011;19986;48.190;16.366;2023-06-14T08:21:21;36.78;;;34.72;;
33644;SDS011;19986;48.190;16.366;2023-06-14T08:23:47;35.13;;;33.45;;
33644;SDS011;19986;48.190;16.366;2023-06-14T08:26:13;36.90;;;34.80;;
33644;SDS011;19986;48.190;16.366;2023-06-14T08:28:39;33.70;;;31.85;;
33644;SDS011;19986;48.190;16.366;2023-06-14T08:31:05;32.10;;;30.30;;
33644;SDS011;19986;48.190;16.366;2023-06-14T08:33:31;33.28;;;31.08;;
33644;SDS011;19986;48.190;16.366;2023-06-14T08:35:59;30.63;;;29.05;;
33644;SDS011;19986;48.190;16.366;2023-06-14T08:38:28;34.72;;;32.95;;
33644;SDS011;19986;48.190;16.366;2023-06-14T08:40:59;33.25;;;31.33;;
33644;SDS011;19986;48.190;16.366;2023-06-14T08:43:28;35.53;;;33.28;;
33644;SDS011;19986;48.190;16.366;2023-06-14T08:46:08;32.67;;;30.73;;
33644;SDS011;19986;48.190;16.366;2023-06-14T08:48:37;35.30;;;33.45;;
33644;SDS011;19986;48.190;16.366;2023-06-14T08:51:04;34.40;;;32.60;;
33644;SDS011;19986;48.190;16.366;2023-06-14T08:53:31;34.95;;;32.92;;
33644;SDS011;19986;48.190;16.366;2023-06-14T08:56:02;33.42;;;31.52;;
33644;SDS011;19986;48.190;16.366;2023-06-14T08:58:33;34.70;;;32.70;;
33644;SDS011;19986;48.190;16.366;2023-06-14T09:01:02;33.90;;;32.00;;
33644;SDS011;19986;48.190;16.366;2023-06-14T09:03:33;33.95;;;32.05;;
33644;SDS011;19986;48.190;16.366;2023-06-14T09:05:58;33.97;;;32.10;;
33644;SDS011;19986;48.190;16.366;2023-06-14T09:08:25;33.63;;;31.75;;
33644;SDS011;19986;48.190;16.366;2023-06-14T09:10:56;33.08;;;30.67;;
33644;SDS011;19986;48.190;16.366;2023-06-14T09:13:22;31.88;;;30.00;;
33644;SDS011;19986;48.190;16.366;2023-06-14T09:15:48;33.03;;;30.95;;
33644;SDS011;19986;48.190;16.366;2023-06-14T09:18:14;32.63;;;30.83;;
33644;SDS011;19986;48.190;16.366;2023-06-14T09:20:40;33.42;;;31.25;;
33644;SDS011;19986;48.190;16.366;2023-06-14T09:23:06;32.60;;;30.80;;
33644;SDS011;19986;48.190;16.366;2023-06-14T09:25:41;31.23;;;29.42;;
33644;SDS011;19986;48.190;16.366;2023-06-14T09:28:09;33.33;;;31.23;;
33644;SDS011;19986;48.190;16.366;2023-06-14T09:30:36;33.45;;;31.65;;
33644;SDS011;19986;48.190;16.366;2023-06-14T09:33:03;33.85;;;31.83;;
33644;SDS011;19986;48.190;16.366;2023-06-14T09:35:31;31.40;;;29.83;;
33644;SDS011;19986;48.190;16.366;2023-06-14T09:37:58;33.50;;;31.80;;
33644;SDS011;19986;48.190;16.366;2023-06-14T09:40:24;33.08;;;31.02;;
33644;SDS011;19986;48.190;16.366;2023-06-14T09:42:52;33.40;;;31.23;;
33644;SDS011;19986;48.190;16.366;2023-06-14T09:45:18;33.25;;;31.55;;
33644;SDS011;19986;48.190;16.366;2023-06-14T09:47:50;31.75;;;30.05;;
33644;SDS011;19986;48.190;16.366;2023-06-14T09:50:18;32.55;;;30.85;;
33644;SDS011;19986;48.190;16.366;2023-06-14T09:52:45;31.95;;;30.33;;
33644;SDS011;19986;48.190;16.366;2023-06-14T09:55:15;32.15;;;30.35;;
33644;SDS011;19986;48.190;16.366;2023-06-14T09:57:42;30.27;;;28.60;;
33644;SDS011;19986;48.190;16.366;2023-06-14T10:00:10;32.25;;;30.27;;
33644;SDS011;19986;48.190;16.366;2023-06-14T10:02:40;32.85;;;31.05;;
33644;SDS011;19986;48.190;16.366;2023-06-14T10:05:13;32.28;;;30.20;;
33644;SDS011;19986;48.190;16.366;2023-06-14T10:10:33;33.95;;;32.13;;
33644;SDS011;19986;48.190;16.366;2023-06-14T10:12:59;32.70;;;30.88;;
33644;SDS011;19986;48.190;16.366;2023-06-14T10:15:38;33.42;;;31.60;;
33644;SDS011;19986;48.190;16.366;2023-06-14T10:21:02;32.97;;;31.08;;
33644;SDS011;19986;48.190;16.366;2023-06-14T10:23:40;32.63;;;30.73;;
33644;SDS011;19986;48.190;16.366;2023-06-14T10:26:08;33.90;;;32.00;;
33644;SDS011;19986;48.190;16.366;2023-06-14T10:28:44;33.50;;;31.60;;
33644;SDS011;19986;48.190;16.366;2023-06-14T10:31:48;31.58;;;29.63;;
33644;SDS011;19986;48.190;16.366;2023-06-14T10:34:21;33.53;;;31.35;;
33644;SDS011;19986;48.190;16.366;2023-06-14T10:36:59;32.15;;;30.35;;
33644;SDS011;19986;48.190;16.366;2023-06-14T10:39:28;33.40;;;31.50;;
33644;SDS011;19986;48.190;16.366;2023-06-14T10:41:55;32.10;;;30.40;;
33644;SDS011;19986;48.190;16.366;2023-06-14T10:46:49;32.10;;;30.17;;
33644;SDS011;19986;48.190;16.366;2023-06-14T10:49:18;32.83;;;30.90;;
33644;SDS011;19986;48.190;16.366;2023-06-14T10:51:45;32.85;;;31.02;;
33644;SDS011;19986;48.190;16.366;2023-06-14T10:54:17;31.60;;;29.33;;
33644;SDS011;19986;48.190;16.366;2023-06-14T10:56:47;32.05;;;30.25;;
33644;SDS011;19986;48.190;16.366;2023-06-14T10:59:13;32.95;;;31.05;;
33644;SDS011;19986;48.190;16.366;2023-06-14T11:04:48;32.28;;;30.42;;
33644;SDS011;19986;48.190;16.366;2023-06-14T11:07:28;35.65;;;33.60;;
33644;SDS011;19986;48.190;16.366;2023-06-14T11:12:45;33.35;;;31.38;;
33644;SDS011;19986;48.190;16.366;2023-06-14T11:15:13;31.90;;;30.25;;
33644;SDS011;19986;48.190;16.366;2023-06-14T11:17:49;30.58;;;29.05;;
33644;SDS011;19986;48.190;16.366;2023-06-14T11:20:24;31.05;;;29.33;;
33644;SDS011;19986;48.190;16.366;2023-06-14T11:22:51;34.05;;;32.00;;
33644;SDS011;19986;48.190;16.366;2023-06-14T11:25:18;34.92;;;33.00;;
33644;SDS011;19986;48.190;16.366;2023-06-14T11:27:45;32.15;;;30.38;;
33644;SDS011;19986;48.190;16.366;2023-06-14T11:30:12;31.73;;;30.02;;
33644;SDS011;19986;48.190;16.366;2023-06-14T11:32:38;31.45;;;29.58;;
33644;SDS011;19986;48.190;16.366;2023-06-14T11:35:06;32.40;;;30.42;;
33644;SDS011;19986;48.190;16.366;2023-06-14T11:37:35;31.90;;;30.23;;
33644;SDS011;19986;48.190;16.366;2023-06-14T11:40:08;30.67;;;29.08;;
33644;SDS011;19986;48.190;16.366;2023-06-14T11:42:35;32.85;;;31.02;;
33644;SDS011;19986;48.190;16.366;2023-06-14T11:45:04;32.30;;;30.67;;
33644;SDS011;19986;48.190;16.366;2023-06-14T11:47:36;31.58;;;29.88;;
33644;SDS011;19986;48.190;16.366;2023-06-14T11:50:08;31.90;;;30.35;;
33644;SDS011;19986;48.190;16.366;2023-06-14T11:52:36;32.90;;;30.88;;
33644;SDS011;19986;48.190;16.366;2023-06-14T11:55:04;32.22;;;30.33;;
33644;SDS011;19986;48.190;16.366;2023-06-14T11:57:35;32.33;;;30.35;;
33644;SDS011;19986;48.190;16.366;2023-06-14T12:00:07;33.58;;;31.88;;
33644;SDS011;19986;48.190;16.366;2023-06-14T12:02:37;32.97;;;31.13;;
33644;SDS011;19986;48.190;16.366;2023-06-14T12:05:05;30.80;;;29.08;;
33644;SDS011;19986;48.190;16.366;2023-06-14T12:07:37;33.60;;;31.45;;
33644;SDS011;19986;48.190;16.366;2023-06-14T12:10:05;32.28;;;30.65;;
33644;SDS011;19986;48.190;16.366;2023-06-14T12:12:35;32.60;;;30.67;;
33644;SDS011;19986;48.190;16.366;2023-06-14T12:15:03;30.48;;;28.88;;
33644;SDS011;19986;48.190;16.366;2023-06-14T12:17:32;32.60;;;30.60;;
33644;SDS011;19986;48.190;16.366;2023-06-14T12:20:05;31.58;;;30.00;;
33644;SDS011;19986;48.190;16.366;2023-06-14T12:22:54;31.73;;;30.05;;
33644;SDS011;19986;48.190;16.366;2023-06-14T12:25:31;34.08;;;31.98;;
33644;SDS011;19986;48.190;16.366;2023-06-14T12:27:59;32.83;;;31.08;;
33644;SDS011;19986;48.190;16.366;2023-06-14T12:30:35;33.05;;;30.95;;
33644;SDS011;19986;48.190;16.366;2023-06-14T12:33:02;33.88;;;32.08;;
33644;SDS011;19986;48.190;16.366;2023-06-14T12:35:28;32.15;;;30.17;;
33644;SDS011;19986;48.190;16.366;2023-06-14T12:37:55;33.78;;;31.77;;
33644;SDS011;19986;48.190;16.366;2023-06-14T12:40:21;34.33;;;31.23;;
33644;SDS011;19986;48.190;16.366;2023-06-14T12:42:47;33.40;;;31.70;;
33644;SDS011;19986;48.190;16.366;2023-06-14T12:45:14;33.80;;;31.88;;
33644;SDS011;19986;48.190;16.366;2023-06-14T12:47:40;32.92;;;31.00;;
33644;SDS011;19986;48.190;16.366;2023-06-14T12:50:06;32.70;;;30.95;;
33644;SDS011;19986;48.190;16.366;2023-06-14T12:52:32;34.80;;;32.75;;
33644;SDS011;19986;48.190;16.366;2023-06-14T12:55:04;33.63;;;31.73;;
33644;SDS011;19986;48.190;16.366;2023-06-14T12:57:31;35.65;;;33.45;;
33644;SDS011;19986;48.190;16.366;2023-06-14T12:59:59;33.42;;;31.58;;
33644;SDS011;19986;48.190;16.366;2023-06-14T13:02:25;32.03;;;30.38;;
33644;SDS011;19986;48.190;16.366;2023-06-14T13:04:52;32.47;;;30.60;;
33644;SDS011;19986;48.190;16.366;2023-06-14T13:07:18;34.58;;;32.38;;
33644;SDS011;19986;48.190;16.366;2023-06-14T13:09:44;34.45;;;32.50;;
33644;SDS011;19986;48.190;16.366;2023-06-14T13:12:10;34.80;;;32.53;;
33644;SDS011;19986;48.190;16.366;2023-06-14T13:14:38;35.20;;;32.95;;
33644;SDS011;19986;48.190;16.366;2023-06-14T13:17:07;33.65;;;31.60;;
33644;SDS011;19986;48.190;16.366;2023-06-14T13:19:34;33.85;;;32.03;;
33644;SDS011;19986;48.190;16.366;2023-06-14T13:22:00;32.13;;;30.42;;
33644;SDS011;19986;48.190;16.366;2023-06-14T13:24:26;32.35;;;30.38;;
33644;SDS011;19986;48.190;16.366;2023-06-14T13:26:53;33.00;;;31.20;;
33644;SDS011;19986;48.190;16.366;2023-06-14T13:29:19;32.78;;;30.70;;
33644;SDS011;19986;48.190;16.366;2023-06-14T13:31:45;34.30;;;32.35;;
33644;SDS011;19986;48.190;16.366;2023-06-14T13:34:11;33.13;;;31.23;;
33644;SDS011;19986;48.190;16.366;2023-06-14T13:36:37;33.95;;;32.10;;
33644;SDS011;19986;48.190;16.366;2023-06-14T13:39:04;36.63;;;34.75;;
33644;SDS011;19986;48.190;16.366;2023-06-14T13:41:30;33.95;;;31.90;;
33644;SDS011;19986;48.190;16.366;2023-06-14T13:43:59;34.47;;;32.55;;
33644;SDS011;19986;48.190;16.366;2023-06-14T13:46:25;35.30;;;32.70;;
33644;SDS011;19986;48.190;16.366;2023-06-14T13:48:51;34.75;;;32.85;;
33644;SDS011;19986;48.190;16.366;2023-06-14T13:51:17;33.92;;;32.03;;
33644;SDS011;19986;48.190;16.366;2023-06-14T13:53:50;34.17;;;32.20;;
33644;SDS011;19986;48.190;16.366;2023-06-14T13:56:18;34.85;;;32.40;;
33644;SDS011;19986;48.190;16.366;2023-06-14T13:58:45;34.20;;;32.22;;
33644;SDS011;19986;48.190;16.366;2023-06-14T14:01:13;35.38;;;33.17;;
33644;SDS011;19986;48.190;16.366;2023-06-14T14:03:39;33.50;;;31.70;;
33644;SDS011;19986;48.190;16.366;2023-06-14T14:06:05;33.78;;;31.92;;
33644;SDS011;19986;48.190;16.366;2023-06-14T14:08:32;34.92;;;32.80;;
33644;SDS011;19986;48.190;16.366;2023-06-14T14:10:58;34.78;;;32.58;;
33644;SDS011;19986;48.190;16.366;2023-06-14T14:13:24;34.97;;;33.05;;
33644;SDS011;19986;48.190;16.366;2023-06-14T14:15:50;35.72;;;33.78;;
33644;SDS011;19986;48.190;16.366;2023-06-14T14:18:17;34.00;;;32.20;;
33644;SDS011;19986;48.190;16.366;2023-06-14T14:20:47;35.63;;;33.55;;
33644;SDS011;19986;48.190;16.366;2023-06-14T14:23:13;33.53;;;31.92;;
33644;SDS011;19986;48.190;16.366;2023-06-14T14:25:40;34.38;;;32.53;;
33644;SDS011;19986;48.190;16.366;2023-06-14T14:28:06;35.20;;;33.13;;